Time;durP1;ratioP1;P1;durP2;ratioP2;P2;SDS_P1;SDS_P2;PMS_P1;PMS_P2;Temp;Humidity;BMP_temperature;BMP_pressure;BME280_temperature;BME280_humidity;BME280_pressure;Samples;Min_cycle;Max_cycle;Signal;HPM_P1;HPM_P2
2023/11/27 00:01:12;;;;;;;;;;;15.30;68.80;;;;;;5105353;28;19975;-35
2023/11/27 00:03:38;;;;;;;;;;;15.30;68.80;;;;;;5105173;28;19922;-35
2023/11/27 00:06:06;;;;;;;;;;;15.30;68.80;;;;;;5105553;28;19953;-35
2023/11/27 00:08:32;;;;;;;;;;;15.30;68.90;;;;;;5097302;28;19912;-35
2023/11/27 00:10:58;;;;;;;;;;;15.30;68.80;;;;;;5104749;28;19965;-35
2023/11/27 00:13:24;;;;;;;;;;;15.20;68.80;;;;;;5104756;28;19935;-35
2023/11/27 00:15:51;;;;;;;;;;;15.20;68.90;;;;;;5106006;28;20349;-35
2023/11/27 00:18:18;;;;;;;;;;;15.20;68.80;;;;;;5095193;28;20656;-36
2023/11/27 00:20:44;;;;;;;;;;;15.20;68.70;;;;;;5098901;28;19935;-34
2023/11/27 00:23:10;;;;;;;;;;;15.20;68.80;;;;;;5104983;28;19930;-34
2023/11/27 00:25:37;;;;;;;;;;;15.20;68.70;;;;;;5103633;28;19931;-35
2023/11/27 00:28:04;;;;;;;;;;;15.20;68.80;;;;;;5104677;28;19912;-35
2023/11/27 00:30:31;;;;;;;;;;;15.10;68.80;;;;;;5105241;28;19912;-35
2023/11/27 00:32:58;;;;;;;;;;;15.10;68.70;;;;;;5104626;28;20387;-34
2023/11/27 00:35:23;;;;;;;;;;;15.10;68.80;;;;;;5104439;28;20010;-35
2023/11/27 00:37:50;;;;;;;;;;;15.30;69.10;;;;;;5097572;28;20298;-35
2023/11/27 00:40:17;;;;;;;;;;;15.30;69.10;;;;;;5104488;28;19933;-35
2023/11/27 00:42:43;;;;;;;;;;;15.40;69.00;;;;;;5104966;28;19912;-35
2023/11/27 00:45:11;;;;;;;;;;;15.30;68.90;;;;;;5103579;28;19912;-35
2023/11/27 00:47:38;;;;;;;;;;;15.30;69.00;;;;;;5103989;28;20083;-35
2023/11/27 00:50:05;;;;;;;;;;;15.30;69.00;;;;;;5104339;28;19912;-35
2023/11/27 00:52:32;;;;;;;;;;;15.20;69.00;;;;;;5104634;28;19911;-35
2023/11/27 00:54:58;;;;;;;;;;;15.20;69.00;;;;;;5104488;28;19923;-35
2023/11/27 00:57:25;;;;;;;;;;;15.20;69.00;;;;;;5104527;28;19915;-34
2023/11/27 00:59:51;;;;;;;;;;;15.20;69.00;;;;;;5104962;28;19926;-34
2023/11/27 01:02:17;;;;;;;;;;;15.20;69.00;;;;;;5094812;28;19924;-35
2023/11/27 01:04:44;;;;;;;;;;;15.10;68.90;;;;;;5104398;28;19965;-35
2023/11/27 01:07:11;;;;;;;;;;;15.10;68.90;;;;;;5103078;28;19908;-35
2023/11/27 01:09:38;;;;;;;;;;;15.20;69.00;;;;;;5104432;28;19943;-34
2023/11/27 01:12:05;;;;;;;;;;;15.10;68.90;;;;;;5103533;28;19908;-34
2023/11/27 01:14:32;;;;;;;;;;;15.10;68.90;;;;;;5102108;28;19964;-38
2023/11/27 01:16:58;;;;;;;;;;;15.20;69.30;;;;;;5102782;28;19951;-35
2023/11/27 01:19:25;;;;;;;;;;;15.30;69.30;;;;;;5102973;28;19916;-35
2023/11/27 01:21:52;;;;;;;;;;;15.30;69.60;;;;;;5102892;28;19912;-35
2023/11/27 01:24:19;;;;;;;;;;;15.30;69.10;;;;;;5102746;28;19954;-35
2023/11/27 01:26:46;;;;;;;;;;;15.30;69.10;;;;;;5103821;28;19919;-35
2023/11/27 01:29:12;;;;;;;;;;;15.30;69.20;;;;;;5102475;28;19912;-35
2023/11/27 01:31:40;;;;;;;;;;;15.20;69.20;;;;;;5104316;28;19916;-35
2023/11/27 01:34:06;;;;;;;;;;;15.20;69.20;;;;;;5102688;28;19933;-35
2023/11/27 01:36:32;;;;;;;;;;;15.20;69.20;;;;;;5102735;28;19920;-35
2023/11/27 01:38:59;;;;;;;;;;;15.20;69.20;;;;;;5105480;28;19908;-34
2023/11/27 01:41:25;;;;;;;;;;;15.10;69.10;;;;;;5101977;28;19934;-35
2023/11/27 01:43:51;;;;;;;;;;;15.10;69.10;;;;;;5097526;28;19920;-34
2023/11/27 01:46:23;;;;;;;;;;;15.10;69.00;;;;;;5104119;28;19965;-34
2023/11/27 01:48:53;;;;;;;;;;;15.10;69.10;;;;;;5102919;28;19908;-35
2023/11/27 01:51:23;;;;;;;;;;;15.10;69.00;;;;;;5117210;28;19916;-35
2023/11/27 01:53:49;;;;;;;;;;;15.20;69.40;;;;;;5095078;28;19912;-35
2023/11/27 01:56:16;;;;;;;;;;;15.30;69.50;;;;;;5102031;28;19927;-34
2023/11/27 01:58:43;;;;;;;;;;;15.30;69.40;;;;;;5102688;28;20451;-35
2023/11/27 02:01:10;;;;;;;;;;;15.30;69.30;;;;;;5102864;28;19912;-35
2023/11/27 02:03:36;;;;;;;;;;;15.30;69.30;;;;;;5102632;28;19919;-35
2023/11/27 02:06:03;;;;;;;;;;;15.30;69.40;;;;;;5102728;28;19975;-35
2023/11/27 02:08:31;;;;;;;;;;;15.20;69.20;;;;;;5102296;28;19993;-35
2023/11/27 02:11:02;;;;;;;;;;;15.20;69.30;;;;;;5102491;28;19975;-35
2023/11/27 02:13:29;;;;;;;;;;;15.20;69.30;;;;;;5102869;28;19912;-35
2023/11/27 02:15:55;;;;;;;;;;;15.20;69.30;;;;;;5104842;28;19916;-35
2023/11/27 02:18:22;;;;;;;;;;;15.20;69.30;;;;;;5101687;28;19965;-34
2023/11/27 02:20:48;;;;;;;;;;;15.20;69.30;;;;;;5102319;28;19916;-35
2023/11/27 02:23:15;;;;;;;;;;;15.10;69.30;;;;;;5101422;28;19990;-34
2023/11/27 02:25:42;;;;;;;;;;;15.10;69.20;;;;;;5117863;28;19914;-34
2023/11/27 02:28:09;;;;;;;;;;;15.10;69.20;;;;;;5102650;28;19912;-34
2023/11/27 02:30:36;;;;;;;;;;;15.10;69.20;;;;;;5102900;28;19908;-34
2023/11/27 02:33:02;;;;;;;;;;;15.10;69.20;;;;;;5102695;28;19914;-34
2023/11/27 02:35:29;;;;;;;;;;;15.10;69.20;;;;;;5102525;28;19916;-34
2023/11/27 02:37:55;;;;;;;;;;;15.10;69.50;;;;;;5103331;28;20002;-34
2023/11/27 02:40:22;;;;;;;;;;;15.20;69.60;;;;;;5102117;28;19971;-34
2023/11/27 02:42:48;;;;;;;;;;;15.30;69.50;;;;;;5103358;28;20379;-34
2023/11/27 02:45:15;;;;;;;;;;;15.30;69.50;;;;;;5102100;28;20284;-33
2023/11/27 02:47:41;;;;;;;;;;;15.20;69.40;;;;;;5102444;28;20305;-34
2023/11/27 02:50:08;;;;;;;;;;;15.20;69.40;;;;;;5102032;28;19919;-34
2023/11/27 02:52:34;;;;;;;;;;;15.20;69.50;;;;;;5102138;28;19915;-34
2023/11/27 02:55:01;;;;;;;;;;;15.20;69.40;;;;;;5094792;28;19991;-34
2023/11/27 02:57:27;;;;;;;;;;;15.10;69.40;;;;;;5103187;28;19983;-34
2023/11/27 02:59:53;;;;;;;;;;;15.10;69.40;;;;;;5102784;28;19915;-34
2023/11/27 03:02:20;;;;;;;;;;;15.10;69.40;;;;;;5107899;28;19914;-34
2023/11/27 03:04:47;;;;;;;;;;;15.10;69.40;;;;;;5102303;28;19908;-34
2023/11/27 03:07:13;;;;;;;;;;;15.10;69.40;;;;;;5102673;28;20354;-34
2023/11/27 03:09:39;;;;;;;;;;;15.10;69.40;;;;;;5101036;28;19943;-34
2023/11/27 03:12:06;;;;;;;;;;;15.10;69.60;;;;;;5108835;28;19912;-34
2023/11/27 03:14:32;;;;;;;;;;;15.20;69.80;;;;;;5123343;27;19911;-34
2023/11/27 03:16:59;;;;;;;;;;;15.30;69.70;;;;;;5105939;28;19955;-34
2023/11/27 03:19:25;;;;;;;;;;;15.30;69.60;;;;;;5105846;28;19937;-34
2023/11/27 03:21:51;;;;;;;;;;;15.30;69.60;;;;;;5106594;28;20374;-34
2023/11/27 03:24:18;;;;;;;;;;;15.20;69.60;;;;;;5105714;28;19912;-34
2023/11/27 03:26:44;;;;;;;;;;;15.20;69.60;;;;;;5105987;28;19912;-34
2023/11/27 03:29:13;;;;;;;;;;;15.20;69.60;;;;;;5105614;28;19908;-35
2023/11/27 03:31:40;;;;;;;;;;;15.20;69.60;;;;;;5099162;28;19918;-34
2023/11/27 03:34:06;;;;;;;;;;;15.20;69.60;;;;;;5105918;28;19919;-34
2023/11/27 03:36:33;;;;;;;;;;;15.10;69.50;;;;;;5106386;28;19920;-34
2023/11/27 03:39:00;;;;;;;;;;;15.10;69.50;;;;;;5099606;28;19915;-34
2023/11/27 03:41:26;;;;;;;;;;;15.10;69.50;;;;;;5107555;28;19912;-34
2023/11/27 03:43:53;;;;;;;;;;;15.10;69.50;;;;;;5105907;28;19919;-34
2023/11/27 03:46:20;;;;;;;;;;;15.10;69.50;;;;;;5106652;28;19916;-34
2023/11/27 03:48:46;;;;;;;;;;;15.10;69.50;;;;;;5105842;28;19912;-33
2023/11/27 03:51:12;;;;;;;;;;;15.10;69.60;;;;;;5105586;28;19912;-34
2023/11/27 03:53:38;;;;;;;;;;;15.20;69.90;;;;;;5105450;28;19912;-34
2023/11/27 03:56:25;;;;;;;;;;;15.30;69.80;;;;;;5105600;28;19942;-34
2023/11/27 03:58:51;;;;;;;;;;;15.30;69.70;;;;;;5018262;28;19937;-34
2023/11/27 04:01:17;;;;;;;;;;;15.30;69.70;;;;;;5022950;28;20009;-34
2023/11/27 04:03:43;;;;;;;;;;;15.20;69.60;;;;;;5023407;28;19993;-34
2023/11/27 04:06:09;;;;;;;;;;;15.20;69.70;;;;;;5022830;28;19984;-34
2023/11/27 04:08:41;;;;;;;;;;;15.20;69.70;;;;;;5023327;28;20685;-35
2023/11/27 04:11:09;;;;;;;;;;;15.20;69.70;;;;;;5022822;28;19981;-34
2023/11/27 04:13:35;;;;;;;;;;;15.10;69.60;;;;;;5023412;28;20297;-34
2023/11/27 04:16:01;;;;;;;;;;;15.10;69.60;;;;;;5022980;28;19945;-34
2023/11/27 04:18:27;;;;;;;;;;;15.10;69.60;;;;;;5022958;28;19988;-34
2023/11/27 04:20:53;;;;;;;;;;;15.10;69.60;;;;;;5023074;28;19951;-34
2023/11/27 04:23:19;;;;;;;;;;;15.10;69.60;;;;;;5021571;28;19916;-34
2023/11/27 04:25:44;;;;;;;;;;;15.10;69.60;;;;;;5022636;28;20004;-35
2023/11/27 04:28:11;;;;;;;;;;;15.10;69.60;;;;;;5022612;28;19916;-34
2023/11/27 04:30:36;;;;;;;;;;;15.10;69.90;;;;;;5022902;28;19913;-34
2023/11/27 04:35:46;;;;;;;;;;;15.30;69.80;;;;;;5055377;28;19930;-34
2023/11/27 04:38:12;;;;;;;;;;;15.30;69.80;;;;;;5103677;28;19911;-34
2023/11/27 04:40:38;;;;;;;;;;;15.20;69.80;;;;;;5104913;28;19912;-35
2023/11/27 04:43:04;;;;;;;;;;;15.20;69.80;;;;;;5104468;28;20400;-34
2023/11/27 04:45:30;;;;;;;;;;;15.20;69.80;;;;;;5106146;28;19912;-34
2023/11/27 04:47:56;;;;;;;;;;;15.20;69.90;;;;;;5104807;28;19904;-34
2023/11/27 04:50:22;;;;;;;;;;;15.10;69.80;;;;;;5104048;28;20011;-34
2023/11/27 04:52:47;;;;;;;;;;;15.10;69.70;;;;;;5104454;28;19918;-34
2023/11/27 04:55:13;;;;;;;;;;;15.20;69.80;;;;;;5103267;28;19908;-34
2023/11/27 04:57:39;;;;;;;;;;;15.10;69.70;;;;;;5104835;28;19976;-33
2023/11/27 05:00:06;;;;;;;;;;;15.10;69.70;;;;;;5104608;28;19911;-34
2023/11/27 05:02:32;;;;;;;;;;;15.10;69.70;;;;;;5104255;28;19923;-34
2023/11/27 05:04:58;;;;;;;;;;;15.10;69.70;;;;;;5089745;28;19908;-33
2023/11/27 05:07:23;;;;;;;;;;;15.10;69.70;;;;;;5103061;28;19969;-34
2023/11/27 05:09:49;;;;;;;;;;;15.10;69.80;;;;;;5085689;28;19968;-34
2023/11/27 05:12:15;;;;;;;;;;;15.20;70.00;;;;;;5108329;28;19915;-34
2023/11/27 05:14:41;;;;;;;;;;;15.30;70.10;;;;;;5103904;28;19908;-34
2023/11/27 05:17:08;;;;;;;;;;;15.30;70.00;;;;;;5106945;28;19965;-35
2023/11/27 05:19:35;;;;;;;;;;;15.30;69.90;;;;;;5103753;28;20319;-34
2023/11/27 05:22:02;;;;;;;;;;;15.20;69.90;;;;;;5104225;28;19904;-34
2023/11/27 05:24:28;;;;;;;;;;;15.20;69.90;;;;;;5103638;28;19923;-33
2023/11/27 05:26:54;;;;;;;;;;;15.20;69.90;;;;;;5103984;28;19908;-34
2023/11/27 05:29:19;;;;;;;;;;;15.20;69.80;;;;;;5103894;28;19914;-34
2023/11/27 05:31:46;;;;;;;;;;;15.20;69.90;;;;;;5104186;28;19912;-34
2023/11/27 05:34:12;;;;;;;;;;;15.10;69.80;;;;;;5102651;28;19915;-34
2023/11/27 05:36:38;;;;;;;;;;;15.10;69.80;;;;;;5096385;28;19920;-33
2023/11/27 05:39:09;;;;;;;;;;;15.10;69.80;;;;;;5103627;28;19911;-34
2023/11/27 05:41:37;;;;;;;;;;;15.10;69.80;;;;;;5105484;28;19908;-34
2023/11/27 05:44:04;;;;;;;;;;;15.10;69.80;;;;;;5107149;28;20437;-34
2023/11/27 05:46:30;;;;;;;;;;;15.10;69.70;;;;;;5103336;28;19922;-35
2023/11/27 05:48:56;;;;;;;;;;;15.10;69.70;;;;;;5103375;28;19934;-35
2023/11/27 05:51:22;;;;;;;;;;;15.10;69.80;;;;;;5102653;28;19911;-35
2023/11/27 05:53:48;;;;;;;;;;;15.20;70.10;;;;;;5119281;28;20324;-34
2023/11/27 05:56:14;;;;;;;;;;;15.20;70.00;;;;;;5118841;27;19923;-34
2023/11/27 05:58:40;;;;;;;;;;;15.20;70.00;;;;;;5103373;28;20003;-34
2023/11/27 06:01:06;;;;;;;;;;;15.20;69.90;;;;;;5103377;28;20630;-34
2023/11/27 06:03:34;;;;;;;;;;;15.20;70.00;;;;;;5102577;28;20487;-34
2023/11/27 06:06:00;;;;;;;;;;;15.20;70.00;;;;;;5103431;28;19953;-34
2023/11/27 06:08:26;;;;;;;;;;;15.10;70.00;;;;;;5102961;28;20637;-34
2023/11/27 06:10:52;;;;;;;;;;;15.10;70.00;;;;;;5085564;28;19918;-34
2023/11/27 06:13:18;;;;;;;;;;;15.10;70.00;;;;;;5102649;28;19965;-34
2023/11/27 06:15:46;;;;;;;;;;;15.10;70.00;;;;;;5100612;28;19998;-34
2023/11/27 06:18:13;;;;;;;;;;;15.10;70.00;;;;;;5099034;28;19943;-35
2023/11/27 06:20:40;;;;;;;;;;;15.10;70.00;;;;;;5100741;28;19912;-34
2023/11/27 06:23:06;;;;;;;;;;;15.10;70.00;;;;;;5101116;28;20324;-34
2023/11/27 06:25:35;;;;;;;;;;;15.10;70.00;;;;;;5099235;28;23328;-35
2023/11/27 06:28:01;;;;;;;;;;;15.20;70.30;;;;;;5101636;28;19915;-34
2023/11/27 06:30:28;;;;;;;;;;;15.30;70.30;;;;;;5085589;28;19912;-34
2023/11/27 06:32:54;;;;;;;;;;;15.30;70.20;;;;;;5100755;28;19912;-34
2023/11/27 06:35:19;;;;;;;;;;;15.20;70.00;;;;;;5101179;28;19962;-35
2023/11/27 06:37:45;;;;;;;;;;;15.20;70.10;;;;;;5099489;28;19912;-34
2023/11/27 06:40:12;;;;;;;;;;;15.20;70.10;;;;;;5101329;28;20348;-35
2023/11/27 06:42:38;;;;;;;;;;;15.20;70.10;;;;;;5103069;28;19999;-35
2023/11/27 06:45:04;;;;;;;;;;;15.20;70.10;;;;;;5100882;28;19927;-35
2023/11/27 06:47:30;;;;;;;;;;;15.10;70.00;;;;;;5097285;28;19912;-35
2023/11/27 06:49:56;;;;;;;;;;;15.10;70.00;;;;;;5102627;28;19918;-34
2023/11/27 06:52:22;;;;;;;;;;;15.10;70.00;;;;;;5106181;28;19991;-34
2023/11/27 06:54:48;;;;;;;;;;;15.10;70.00;;;;;;5106701;28;19954;-34
2023/11/27 06:57:14;;;;;;;;;;;15.10;70.10;;;;;;5106256;28;19999;-35
2023/11/27 06:59:40;;;;;;;;;;;15.10;70.00;;;;;;5106784;28;19908;-34
2023/11/27 07:02:06;;;;;;;;;;;15.10;70.10;;;;;;5107075;28;19912;-34
2023/11/27 07:04:32;;;;;;;;;;;15.20;70.30;;;;;;5108165;28;19919;-34
2023/11/27 07:06:58;;;;;;;;;;;15.20;70.20;;;;;;5106550;28;19934;-34
2023/11/27 07:09:24;;;;;;;;;;;15.20;70.10;;;;;;5105853;28;19912;-33
2023/11/27 07:11:50;;;;;;;;;;;15.20;70.20;;;;;;5106406;28;19915;-33
2023/11/27 07:14:16;;;;;;;;;;;15.20;70.20;;;;;;5105843;28;19919;-34
2023/11/27 07:16:42;;;;;;;;;;;15.10;70.10;;;;;;5108795;28;19920;-34
2023/11/27 07:19:08;;;;;;;;;;;15.10;70.20;;;;;;5102515;28;19915;-34
2023/11/27 07:21:34;;;;;;;;;;;15.10;70.20;;;;;;5104694;28;19950;-33
2023/11/27 07:24:00;;;;;;;;;;;15.10;70.20;;;;;;5106618;28;19911;-34
2023/11/27 07:26:26;;;;;;;;;;;15.10;70.10;;;;;;5099575;28;19969;-33
2023/11/27 07:28:53;;;;;;;;;;;15.10;70.20;;;;;;5104298;28;19916;-34
2023/11/27 07:31:19;;;;;;;;;;;15.10;70.20;;;;;;5102592;28;19908;-34
2023/11/27 07:33:45;;;;;;;;;;;15.10;70.30;;;;;;5103909;28;19911;-33
2023/11/27 07:36:11;;;;;;;;;;;15.20;70.40;;;;;;5121590;27;20423;-34
2023/11/27 07:38:37;;;;;;;;;;;15.20;70.20;;;;;;5101683;28;19937;-34
2023/11/27 07:41:06;;;;;;;;;;;15.20;70.20;;;;;;5100256;28;19912;-34
2023/11/27 07:43:32;;;;;;;;;;;15.20;70.20;;;;;;5101396;28;19931;-33
2023/11/27 07:45:58;;;;;;;;;;;15.20;70.30;;;;;;5086931;28;19920;-34
2023/11/27 07:48:24;;;;;;;;;;;15.10;70.20;;;;;;5105338;28;21490;-34
2023/11/27 07:50:50;;;;;;;;;;;15.10;70.20;;;;;;5105989;28;19908;-34
2023/11/27 07:53:19;;;;;;;;;;;15.10;70.20;;;;;;5087659;28;19908;-34
2023/11/27 07:55:46;;;;;;;;;;;15.10;70.20;;;;;;5105488;28;19919;-34
2023/11/27 07:58:15;;;;;;;;;;;15.10;70.20;;;;;;5087912;28;19911;-34
2023/11/27 08:00:41;;;;;;;;;;;15.10;70.20;;;;;;5098952;28;20611;-34
2023/11/27 08:03:07;;;;;;;;;;;15.10;70.10;;;;;;5105824;28;19919;-34
2023/11/27 08:05:35;;;;;;;;;;;15.10;70.30;;;;;;5104615;28;19912;-35
2023/11/27 08:08:01;;;;;;;;;;;15.20;70.40;;;;;;5105845;28;19916;-34
2023/11/27 08:10:28;;;;;;;;;;;15.30;70.30;;;;;;5104764;28;20015;-34
2023/11/27 08:12:54;;;;;;;;;;;15.30;70.30;;;;;;5105863;28;19918;-34
2023/11/27 08:15:20;;;;;;;;;;;15.20;70.20;;;;;;5102623;28;19912;-35
2023/11/27 08:17:46;;;;;;;;;;;15.20;70.20;;;;;;5103331;28;19995;-34
2023/11/27 08:20:15;;;;;;;;;;;15.20;70.20;;;;;;5104991;28;19980;-34
2023/11/27 08:22:42;;;;;;;;;;;15.10;70.20;;;;;;5104370;28;19908;-34
2023/11/27 08:25:10;;;;;;;;;;;15.10;70.30;;;;;;5099859;28;20383;-34
2023/11/27 08:27:38;;;;;;;;;;;15.10;70.20;;;;;;5102785;28;20346;-34
2023/11/27 08:30:10;;;;;;;;;;;15.10;70.20;;;;;;5100281;28;19908;-35
2023/11/27 08:32:36;;;;;;;;;;;15.10;70.20;;;;;;5102548;28;19940;-34
2023/11/27 08:35:05;;;;;;;;;;;15.10;70.10;;;;;;5101526;28;19981;-33
2023/11/27 08:37:35;;;;;;;;;;;15.10;70.10;;;;;;5103765;28;19908;-34
2023/11/27 08:40:08;;;;;;;;;;;15.00;70.00;;;;;;5105042;28;19908;-34
2023/11/27 08:42:34;;;;;;;;;;;15.00;70.10;;;;;;5099954;28;19911;-34
2023/11/27 08:45:01;;;;;;;;;;;15.10;70.20;;;;;;5101898;28;19916;-33
2023/11/27 08:47:26;;;;;;;;;;;15.20;70.10;;;;;;5104515;28;19911;-33
2023/11/27 08:49:52;;;;;;;;;;;15.20;70.10;;;;;;5104918;28;19907;-33
2023/11/27 08:52:18;;;;;;;;;;;15.20;70.10;;;;;;5104397;28;19923;-35
2023/11/27 08:54:44;;;;;;;;;;;15.10;70.20;;;;;;5078837;28;19930;-34
2023/11/27 08:57:10;;;;;;;;;;;15.10;70.10;;;;;;5104180;28;19916;-35
2023/11/27 08:59:36;;;;;;;;;;;15.10;70.10;;;;;;5104410;28;20642;-35
2023/11/27 09:02:02;;;;;;;;;;;15.10;70.20;;;;;;5104509;28;19912;-35
2023/11/27 09:04:28;;;;;;;;;;;15.00;70.10;;;;;;5103891;28;19934;-35
2023/11/27 09:06:54;;;;;;;;;;;15.00;70.00;;;;;;5106295;28;19912;-35
2023/11/27 09:09:22;;;;;;;;;;;15.00;70.00;;;;;;5103462;28;19908;-35
2023/11/27 09:11:48;;;;;;;;;;;15.10;70.30;;;;;;5103787;28;19923;-35
2023/11/27 09:14:14;;;;;;;;;;;15.20;70.20;;;;;;5103445;28;19907;-34
2023/11/27 09:16:39;;;;;;;;;;;15.20;70.20;;;;;;5100764;28;19915;-34
2023/11/27 09:19:07;;;;;;;;;;;15.20;70.10;;;;;;5099703;28;19943;-35
2023/11/27 09:21:33;;;;;;;;;;;15.20;70.20;;;;;;5098020;28;19916;-35
2023/11/27 09:23:58;;;;;;;;;;;15.10;70.20;;;;;;5098520;28;20352;-35
2023/11/27 09:26:24;;;;;;;;;;;15.10;70.20;;;;;;5100664;28;20012;-35
2023/11/27 09:28:50;;;;;;;;;;;15.10;70.10;;;;;;5100195;28;19908;-34
2023/11/27 09:31:17;;;;;;;;;;;15.10;70.20;;;;;;5101943;28;19930;-35
2023/11/27 09:33:43;;;;;;;;;;;15.10;70.20;;;;;;5100236;28;19916;-34
2023/11/27 09:36:13;;;;;;;;;;;15.10;70.20;;;;;;5099809;28;19973;-35
2023/11/27 09:38:40;;;;;;;;;;;15.00;70.00;;;;;;5101130;28;19911;-34
2023/11/27 09:41:07;;;;;;;;;;;15.00;70.00;;;;;;5099348;28;19911;-34
2023/11/27 09:43:37;;;;;;;;;;;15.00;70.00;;;;;;5100244;28;19946;-35
2023/11/27 09:46:06;;;;;;;;;;;15.00;70.30;;;;;;5119289;27;19919;-35
2023/11/27 09:48:40;;;;;;;;;;;15.20;70.20;;;;;;5103402;28;19908;-35
2023/11/27 09:51:09;;;;;;;;;;;15.20;70.10;;;;;;5108840;28;19915;-34
2023/11/27 09:53:40;;;;;;;;;;;15.20;70.00;;;;;;5118328;28;19912;-34
2023/11/27 09:56:09;;;;;;;;;;;15.10;70.10;;;;;;5103061;28;19926;-35
2023/11/27 09:58:42;;;;;;;;;;;15.10;70.90;;;;;;5084763;28;19912;-34
2023/11/27 10:01:11;;;;;;;;;;;15.10;70.10;;;;;;5082373;28;19929;-34
2023/11/27 10:03:40;;;;;;;;;;;15.10;70.10;;;;;;5102314;28;19912;-34
2023/11/27 10:06:07;;;;;;;;;;;15.00;70.00;;;;;;5103023;28;19912;-34
2023/11/27 10:08:33;;;;;;;;;;;15.00;70.00;;;;;;5102389;28;20364;-35
2023/11/27 10:10:59;;;;;;;;;;;15.00;70.00;;;;;;5095915;28;19920;-35
2023/11/27 10:13:29;;;;;;;;;;;15.10;70.30;;;;;;5100698;28;19908;-34
2023/11/27 10:15:58;;;;;;;;;;;15.20;71.00;;;;;;5097032;28;19946;-35
2023/11/27 10:18:24;;;;;;;;;;;15.20;70.10;;;;;;5080884;28;19919;-34
2023/11/27 10:20:50;;;;;;;;;;;15.20;70.00;;;;;;5101700;28;19908;-35
2023/11/27 10:23:16;;;;;;;;;;;15.10;70.00;;;;;;5096244;28;20270;-35
2023/11/27 10:25:42;;;;;;;;;;;15.10;70.10;;;;;;5098967;28;19922;-35
2023/11/27 10:28:09;;;;;;;;;;;15.10;70.10;;;;;;5099252;28;19915;-35
2023/11/27 10:30:36;;;;;;;;;;;15.10;70.00;;;;;;5115228;28;19939;-35
2023/11/27 10:33:02;;;;;;;;;;;15.00;70.00;;;;;;5097107;28;19912;-35
2023/11/27 10:35:31;;;;;;;;;;;15.00;70.00;;;;;;5102082;28;19927;-35
2023/11/27 10:37:57;;;;;;;;;;;15.00;70.00;;;;;;5098601;28;19956;-35
2023/11/27 10:40:26;;;;;;;;;;;15.10;70.10;;;;;;5103137;28;20033;-35
2023/11/27 10:42:52;;;;;;;;;;;15.20;70.00;;;;;;5099270;28;19956;-35
2023/11/27 10:45:18;;;;;;;;;;;15.20;69.90;;;;;;5100177;28;19916;-33
2023/11/27 10:47:46;;;;;;;;;;;15.20;69.80;;;;;;5118331;28;20380;-35
2023/11/27 10:50:15;;;;;;;;;;;15.10;69.70;;;;;;5102077;28;19912;-35
2023/11/27 10:52:43;;;;;;;;;;;15.10;69.80;;;;;;5093470;28;19908;-35
2023/11/27 10:55:09;;;;;;;;;;;15.10;69.90;;;;;;5094763;28;19919;-35
2023/11/27 10:57:36;;;;;;;;;;;15.10;69.90;;;;;;5098662;28;19995;-35
2023/11/27 11:00:04;;;;;;;;;;;15.10;69.90;;;;;;5106995;28;19999;-35
2023/11/27 11:02:32;;;;;;;;;;;15.00;69.90;;;;;;5087355;28;19912;-35
2023/11/27 11:04:58;;;;;;;;;;;15.00;69.80;;;;;;5102101;28;19912;-35
2023/11/27 11:07:50;;;;;;;;;;;15.00;69.70;;;;;;5102123;28;19908;-35
2023/11/27 11:10:17;;;;;;;;;;;15.10;69.90;;;;;;5100233;28;19914;-35
2023/11/27 11:12:43;;;;;;;;;;;15.20;69.80;;;;;;5102674;28;19908;-35
2023/11/27 11:15:18;;;;;;;;;;;15.20;69.60;;;;;;5101234;28;19926;-35
2023/11/27 11:17:54;;;;;;;;;;;15.10;69.50;;;;;;5099945;28;19951;-35
2023/11/27 11:20:30;;;;;;;;;;;15.10;69.50;;;;;;5098875;28;19908;-35
2023/11/27 11:22:55;;;;;;;;;;;15.10;69.60;;;;;;5083677;28;19914;-35
2023/11/27 11:25:31;;;;;;;;;;;15.00;69.60;;;;;;5100189;28;19943;-35
2023/11/27 11:28:11;;;;;;;;;;;15.00;69.50;;;;;;5081533;28;20036;-33
2023/11/27 11:30:37;;;;;;;;;;;15.00;69.60;;;;;;5095724;28;19912;-34
2023/11/27 11:33:05;;;;;;;;;;;15.00;69.60;;;;;;5102838;28;20976;-35
2023/11/27 11:35:36;;;;;;;;;;;15.00;69.60;;;;;;5100964;28;19916;-35
2023/11/27 11:38:16;;;;;;;;;;;15.10;69.70;;;;;;5102825;28;19915;-35
2023/11/27 11:40:45;;;;;;;;;;;15.20;69.50;;;;;;5103143;28;20032;-35
2023/11/27 11:43:10;;;;;;;;;;;15.10;69.50;;;;;;5105195;28;19930;-34
2023/11/27 11:45:39;;;;;;;;;;;15.10;69.40;;;;;;5105776;28;19911;-35
2023/11/27 11:48:12;;;;;;;;;;;15.10;69.50;;;;;;5098367;28;19904;-35
2023/11/27 11:50:41;;;;;;;;;;;15.00;69.40;;;;;;5094910;28;19912;-35
2023/11/27 11:53:14;;;;;;;;;;;15.00;69.40;;;;;;5094619;28;19924;-34
2023/11/27 11:55:41;;;;;;;;;;;15.00;69.50;;;;;;5105743;28;19938;-34
2023/11/27 11:58:07;;;;;;;;;;;15.00;69.50;;;;;;5102655;28;19919;-34
2023/11/27 12:00:42;;;;;;;;;;;14.90;69.50;;;;;;5094588;28;19912;-34
2023/11/27 12:03:08;;;;;;;;;;;15.10;69.70;;;;;;5097937;28;19961;-34
2023/11/27 12:05:34;;;;;;;;;;;15.20;69.60;;;;;;5098098;28;19916;-34
2023/11/27 12:08:00;;;;;;;;;;;15.20;69.40;;;;;;5105498;28;19918;-34
2023/11/27 12:10:31;;;;;;;;;;;15.10;69.40;;;;;;5103087;28;19916;-34
2023/11/27 12:12:57;;;;;;;;;;;15.10;69.50;;;;;;5100714;28;19912;-34
2023/11/27 12:15:24;;;;;;;;;;;15.10;69.50;;;;;;5103784;28;19938;-34
2023/11/27 12:17:50;;;;;;;;;;;15.00;69.40;;;;;;5104399;28;19994;-34
2023/11/27 12:20:22;;;;;;;;;;;15.00;69.40;;;;;;5099702;28;19943;-35
2023/11/27 12:22:48;;;;;;;;;;;14.90;69.30;;;;;;5083808;28;19983;-34
2023/11/27 12:25:18;;;;;;;;;;;15.00;69.40;;;;;;5099353;28;19908;-34
2023/11/27 12:27:45;;;;;;;;;;;15.10;69.50;;;;;;5100615;28;19937;-34
2023/11/27 12:30:13;;;;;;;;;;;15.10;69.30;;;;;;5105454;28;19983;-34
2023/11/27 12:32:39;;;;;;;;;;;15.10;69.20;;;;;;5099211;28;19912;-34
2023/11/27 12:35:14;;;;;;;;;;;15.10;69.20;;;;;;5105741;28;19929;-34
2023/11/27 12:37:42;;;;;;;;;;;15.00;69.20;;;;;;5101218;28;19941;-34
2023/11/27 12:40:08;;;;;;;;;;;15.00;69.30;;;;;;5104672;28;19940;-38
2023/11/27 12:42:35;;;;;;;;;;;15.00;69.30;;;;;;5101656;28;20372;-34
2023/11/27 12:45:05;;;;;;;;;;;15.00;69.30;;;;;;5102283;28;19981;-35
2023/11/27 12:47:34;;;;;;;;;;;15.00;69.40;;;;;;5104090;28;19912;-35
2023/11/27 12:50:00;;;;;;;;;;;15.10;69.50;;;;;;5104501;28;19912;-33
2023/11/27 12:52:27;;;;;;;;;;;15.10;69.40;;;;;;5104100;28;20711;-35
2023/11/27 12:54:55;;;;;;;;;;;15.10;69.10;;;;;;5104586;28;19930;-37
2023/11/27 12:57:22;;;;;;;;;;;15.10;69.30;;;;;;5105070;28;19977;-35
2023/11/27 12:59:49;;;;;;;;;;;15.00;69.20;;;;;;5110632;28;19912;-35
2023/11/27 13:02:20;;;;;;;;;;;15.00;69.20;;;;;;5104392;28;19916;-35
2023/11/27 13:04:47;;;;;;;;;;;14.90;69.30;;;;;;5104623;28;19908;-35
2023/11/27 13:07:15;;;;;;;;;;;14.90;69.20;;;;;;5103712;28;19912;-35
2023/11/27 13:09:42;;;;;;;;;;;14.90;69.20;;;;;;5103785;28;20052;-35
2023/11/27 13:12:18;;;;;;;;;;;14.90;69.30;;;;;;5104358;28;19916;-34
2023/11/27 13:14:49;;;;;;;;;;;15.10;69.30;;;;;;5097595;28;19916;-35
2023/11/27 13:17:22;;;;;;;;;;;15.10;69.20;;;;;;5099773;28;19947;-35
2023/11/27 13:19:49;;;;;;;;;;;15.00;69.10;;;;;;5100681;28;19947;-35
2023/11/27 13:22:15;;;;;;;;;;;15.00;69.20;;;;;;5101907;28;19908;-35
2023/11/27 13:24:41;;;;;;;;;;;15.00;69.20;;;;;;5102253;28;19976;-35
2023/11/27 13:27:07;;;;;;;;;;;15.00;69.20;;;;;;5099866;28;19912;-35
2023/11/27 13:29:33;;;;;;;;;;;14.90;69.10;;;;;;5097316;28;19927;-35
2023/11/27 13:32:01;;;;;;;;;;;15.00;69.10;;;;;;5097564;28;20026;-34
2023/11/27 13:34:33;;;;;;;;;;;15.10;69.00;;;;;;5101837;28;19916;-34
2023/11/27 13:36:59;;;;;;;;;;;15.10;68.90;;;;;;5100195;28;19920;-35
2023/11/27 13:39:36;;;;;;;;;;;15.00;68.80;;;;;;5100372;28;19908;-35
2023/11/27 13:42:04;;;;;;;;;;;15.00;68.80;;;;;;5101797;28;19947;-35
2023/11/27 13:44:30;;;;;;;;;;;15.00;68.90;;;;;;5098952;28;20715;-37
2023/11/27 13:46:56;;;;;;;;;;;14.90;68.80;;;;;;5103971;28;19919;-34
2023/11/27 13:49:25;;;;;;;;;;;14.90;68.80;;;;;;5085290;28;19929;-35
2023/11/27 13:52:00;;;;;;;;;;;14.90;68.80;;;;;;5104055;28;19912;-35
2023/11/27 13:54:29;;;;;;;;;;;15.10;68.70;;;;;;5103313;28;19931;-37
2023/11/27 13:56:58;;;;;;;;;;;15.10;68.60;;;;;;5103999;28;19916;-35
2023/11/27 13:59:42;;;;;;;;;;;15.00;68.50;;;;;;5103449;28;20404;-34
2023/11/27 14:02:12;;;;;;;;;;;15.00;68.50;;;;;;5103368;28;19907;-34
2023/11/27 14:04:38;;;;;;;;;;;15.00;68.50;;;;;;5119077;28;19908;-34
2023/11/27 14:07:06;;;;;;;;;;;14.90;68.50;;;;;;5105305;28;19912;-34
2023/11/27 14:12:14;;;;;;;;;;;14.90;68.50;;;;;;5103050;28;19908;-34
2023/11/27 14:14:41;;;;;;;;;;;15.10;68.50;;;;;;5102853;28;19912;-34
2023/11/27 14:17:18;;;;;;;;;;;15.10;68.40;;;;;;5100227;28;19947;-34
2023/11/27 14:25:49;;;;;;;;;;;15.00;68.40;;;;;;5103050;28;19965;-34
2023/11/27 14:28:19;;;;;;;;;;;15.00;68.40;;;;;;5095901;28;19915;-34